Terminal Aerodrome Forecast
Issued by NWS

Home | Current Version | Previous Version | Text Only | Print | Product List | Glossary On
Versions: 1 2 3 4 5 6 7 8 9 10 11 12 13 14
148
FTUS44 KLZK 230520
TAFLLQ
TAF
KLLQ 230520Z 2306/2406 VRB03KT P6SM VCSH SCT050 SCT100 BKN250
     FM230800 04006KT P6SM VCTS SCT050CB BKN150
      TEMPO 2310/2314 5SM -TSRA BKN050CB OVC080
     FM231400 34007KT P6SM VCTS SCT025CB BKN050 OVC100
     FM232100 04005KT P6SM VCSH SCT040 BKN250=

USA.gov is the U.S. government's official web portal to all federal, state and local government web resources and services.